sensor_id;sensor_type;location;lat;lon;timestamp;temperature;humidity
41630;DHT22;27322;49.488;8.480;2024-01-30T00:01:28;5.20;99.90
41630;DHT22;27322;49.488;8.480;2024-01-30T00:03:54;5.20;99.90
41630;DHT22;27322;49.488;8.480;2024-01-30T00:06:19;5.10;99.90
41630;DHT22;27322;49.488;8.480;2024-01-30T00:08:46;5.20;99.90
41630;DHT22;27322;49.488;8.480;2024-01-30T00:11:14;5.10;99.90
41630;DHT22;27322;49.488;8.480;2024-01-30T00:13:40;5.10;99.90
41630;DHT22;27322;49.488;8.480;2024-01-30T00:16:06;5.10;99.90
41630;DHT22;27322;49.488;8.480;2024-01-30T00:18:32;5.20;99.90
41630;DHT22;27322;49.488;8.480;2024-01-30T00:20:57;5.20;99.90
41630;DHT22;27322;49.488;8.480;2024-01-30T00:23:23;5.20;99.90
41630;DHT22;27322;49.488;8.480;2024-01-30T00:25:49;5.20;99.90
41630;DHT22;27322;49.488;8.480;2024-01-30T00:28:15;5.10;99.90
41630;DHT22;27322;49.488;8.480;2024-01-30T00:30:40;5.10;99.90
41630;DHT22;27322;49.488;8.480;2024-01-30T00:33:06;5.10;99.90
41630;DHT22;27322;49.488;8.480;2024-01-30T00:35:33;5.00;99.90
41630;DHT22;27322;49.488;8.480;2024-01-30T00:37:58;5.00;99.90
41630;DHT22;27322;49.488;8.480;2024-01-30T00:40:24;5.00;99.90
41630;DHT22;27322;49.488;8.480;2024-01-30T00:42:49;5.00;99.90
41630;DHT22;27322;49.488;8.480;2024-01-30T00:45:16;5.00;99.90
41630;DHT22;27322;49.488;8.480;2024-01-30T00:47:42;5.00;99.90
41630;DHT22;27322;49.488;8.480;2024-01-30T00:50:08;5.00;99.90
41630;DHT22;27322;49.488;8.480;2024-01-30T00:52:33;5.00;99.90
41630;DHT22;27322;49.488;8.480;2024-01-30T00:54:59;5.00;99.90
41630;DHT22;27322;49.488;8.480;2024-01-30T00:57:25;5.00;99.90
41630;DHT22;27322;49.488;8.480;2024-01-30T00:59:51;5.00;99.90
41630;DHT22;27322;49.488;8.480;2024-01-30T01:02:16;5.00;99.90
41630;DHT22;27322;49.488;8.480;2024-01-30T01:04:45;5.00;99.90
41630;DHT22;27322;49.488;8.480;2024-01-30T01:07:11;5.00;99.90
41630;DHT22;27322;49.488;8.480;2024-01-30T01:09:36;5.00;99.90
41630;DHT22;27322;49.488;8.480;2024-01-30T01:12:03;5.00;99.90
41630;DHT22;27322;49.488;8.480;2024-01-30T01:14:29;4.90;99.90
41630;DHT22;27322;49.488;8.480;2024-01-30T01:16:54;5.00;99.90
41630;DHT22;27322;49.488;8.480;2024-01-30T01:19:20;4.90;99.90
41630;DHT22;27322;49.488;8.480;2024-01-30T01:21:45;4.90;99.90
41630;DHT22;27322;49.488;8.480;2024-01-30T01:24:11;4.90;99.90
41630;DHT22;27322;49.488;8.480;2024-01-30T01:26:37;5.00;99.90
41630;DHT22;27322;49.488;8.480;2024-01-30T01:29:02;4.90;99.90
41630;DHT22;27322;49.488;8.480;2024-01-30T01:31:38;5.00;99.90
41630;DHT22;27322;49.488;8.480;2024-01-30T01:34:09;4.90;99.90
41630;DHT22;27322;49.488;8.480;2024-01-30T01:36:35;4.90;99.90
41630;DHT22;27322;49.488;8.480;2024-01-30T01:39:01;4.90;99.90
41630;DHT22;27322;49.488;8.480;2024-01-30T01:41:30;4.90;99.90
41630;DHT22;27322;49.488;8.480;2024-01-30T01:43:56;4.90;99.90
41630;DHT22;27322;49.488;8.480;2024-01-30T01:46:22;4.90;99.90
41630;DHT22;27322;49.488;8.480;2024-01-30T01:48:48;4.90;99.90
41630;DHT22;27322;49.488;8.480;2024-01-30T01:51:14;4.90;99.90
41630;DHT22;27322;49.488;8.480;2024-01-30T01:53:40;4.90;99.90
41630;DHT22;27322;49.488;8.480;2024-01-30T01:56:06;4.90;99.90
41630;DHT22;27322;49.488;8.480;2024-01-30T01:58:32;4.90;99.90
41630;DHT22;27322;49.488;8.480;2024-01-30T02:00:59;4.90;99.90
41630;DHT22;27322;49.488;8.480;2024-01-30T02:03:24;4.90;99.90
41630;DHT22;27322;49.488;8.480;2024-01-30T02:05:53;4.90;99.90
41630;DHT22;27322;49.488;8.480;2024-01-30T02:08:20;4.90;99.90
41630;DHT22;27322;49.488;8.480;2024-01-30T02:10:45;5.00;99.90
41630;DHT22;27322;49.488;8.480;2024-01-30T02:13:11;5.00;99.90
41630;DHT22;27322;49.488;8.480;2024-01-30T02:15:37;5.10;99.90
41630;DHT22;27322;49.488;8.480;2024-01-30T02:18:02;5.00;99.90
41630;DHT22;27322;49.488;8.480;2024-01-30T02:20:30;5.00;99.90
41630;DHT22;27322;49.488;8.480;2024-01-30T02:22:58;5.00;99.90
41630;DHT22;27322;49.488;8.480;2024-01-30T02:25:40;5.00;99.90
41630;DHT22;27322;49.488;8.480;2024-01-30T02:28:12;5.00;99.90
41630;DHT22;27322;49.488;8.480;2024-01-30T02:30:39;5.00;99.90
41630;DHT22;27322;49.488;8.480;2024-01-30T02:33:05;5.00;99.90
41630;DHT22;27322;49.488;8.480;2024-01-30T02:35:30;5.00;99.90
41630;DHT22;27322;49.488;8.480;2024-01-30T02:37:56;4.90;99.90
41630;DHT22;27322;49.488;8.480;2024-01-30T02:40:22;5.00;99.90
41630;DHT22;27322;49.488;8.480;2024-01-30T02:42:47;4.90;99.90
41630;DHT22;27322;49.488;8.480;2024-01-30T02:45:13;4.90;99.90
41630;DHT22;27322;49.488;8.480;2024-01-30T02:47:39;4.90;99.90
41630;DHT22;27322;49.488;8.480;2024-01-30T02:50:05;4.80;99.90
41630;DHT22;27322;49.488;8.480;2024-01-30T02:52:31;4.80;99.90
41630;DHT22;27322;49.488;8.480;2024-01-30T02:54:57;4.80;99.90
41630;DHT22;27322;49.488;8.480;2024-01-30T02:57:23;4.80;99.90
41630;DHT22;27322;49.488;8.480;2024-01-30T02:59:48;4.80;99.90
41630;DHT22;27322;49.488;8.480;2024-01-30T03:02:14;4.70;99.90
41630;DHT22;27322;49.488;8.480;2024-01-30T03:04:42;4.70;99.90
41630;DHT22;27322;49.488;8.480;2024-01-30T03:07:08;4.70;99.90
41630;DHT22;27322;49.488;8.480;2024-01-30T03:09:34;4.70;99.90
41630;DHT22;27322;49.488;8.480;2024-01-30T03:12:00;4.70;99.90
41630;DHT22;27322;49.488;8.480;2024-01-30T03:14:26;4.70;99.90
41630;DHT22;27322;49.488;8.480;2024-01-30T03:16:51;4.70;99.90
41630;DHT22;27322;49.488;8.480;2024-01-30T03:19:17;4.70;99.90
41630;DHT22;27322;49.488;8.480;2024-01-30T03:21:44;4.70;99.90
41630;DHT22;27322;49.488;8.480;2024-01-30T03:24:09;4.70;99.90
41630;DHT22;27322;49.488;8.480;2024-01-30T03:26:35;4.70;99.90
41630;DHT22;27322;49.488;8.480;2024-01-30T03:29:00;4.70;99.90
41630;DHT22;27322;49.488;8.480;2024-01-30T03:31:26;4.70;99.90
41630;DHT22;27322;49.488;8.480;2024-01-30T03:33:52;4.70;99.90
41630;DHT22;27322;49.488;8.480;2024-01-30T03:36:18;4.70;99.90
41630;DHT22;27322;49.488;8.480;2024-01-30T03:38:43;4.60;99.90
41630;DHT22;27322;49.488;8.480;2024-01-30T03:41:09;4.60;99.90
41630;DHT22;27322;49.488;8.480;2024-01-30T03:43:35;4.60;99.90
41630;DHT22;27322;49.488;8.480;2024-01-30T03:46:02;4.60;99.90
41630;DHT22;27322;49.488;8.480;2024-01-30T03:48:28;4.60;99.90
41630;DHT22;27322;49.488;8.480;2024-01-30T03:50:54;4.60;99.90
41630;DHT22;27322;49.488;8.480;2024-01-30T03:53:19;4.60;99.90
41630;DHT22;27322;49.488;8.480;2024-01-30T03:55:45;4.60;99.90
41630;DHT22;27322;49.488;8.480;2024-01-30T03:58:10;4.60;99.90
41630;DHT22;27322;49.488;8.480;2024-01-30T04:00:36;4.70;99.90
41630;DHT22;27322;49.488;8.480;2024-01-30T04:03:02;4.70;99.90
41630;DHT22;27322;49.488;8.480;2024-01-30T04:05:27;4.70;99.90
41630;DHT22;27322;49.488;8.480;2024-01-30T04:07:53;4.70;99.90
41630;DHT22;27322;49.488;8.480;2024-01-30T04:10:19;4.70;99.90
41630;DHT22;27322;49.488;8.480;2024-01-30T04:12:44;4.70;99.90
41630;DHT22;27322;49.488;8.480;2024-01-30T04:15:10;4.70;99.90
41630;DHT22;27322;49.488;8.480;2024-01-30T04:17:36;4.70;99.90
41630;DHT22;27322;49.488;8.480;2024-01-30T04:20:01;4.70;99.90
41630;DHT22;27322;49.488;8.480;2024-01-30T04:22:27;4.60;99.90
41630;DHT22;27322;49.488;8.480;2024-01-30T04:24:52;4.60;99.90
41630;DHT22;27322;49.488;8.480;2024-01-30T04:27:18;4.70;99.90
41630;DHT22;27322;49.488;8.480;2024-01-30T04:29:43;4.70;99.90
41630;DHT22;27322;49.488;8.480;2024-01-30T04:32:09;4.70;99.90
41630;DHT22;27322;49.488;8.480;2024-01-30T04:34:36;4.70;99.90
41630;DHT22;27322;49.488;8.480;2024-01-30T04:37:02;4.70;99.90
41630;DHT22;27322;49.488;8.480;2024-01-30T04:39:28;4.80;99.90
41630;DHT22;27322;49.488;8.480;2024-01-30T04:41:54;4.80;99.90
41630;DHT22;27322;49.488;8.480;2024-01-30T04:44:19;4.80;99.90
41630;DHT22;27322;49.488;8.480;2024-01-30T04:46:45;4.80;99.90
41630;DHT22;27322;49.488;8.480;2024-01-30T04:49:11;4.80;99.90
41630;DHT22;27322;49.488;8.480;2024-01-30T04:51:36;4.80;99.90
41630;DHT22;27322;49.488;8.480;2024-01-30T04:54:02;4.80;99.90
41630;DHT22;27322;49.488;8.480;2024-01-30T04:56:27;4.80;99.90
41630;DHT22;27322;49.488;8.480;2024-01-30T04:58:53;4.80;99.90
41630;DHT22;27322;49.488;8.480;2024-01-30T05:01:19;4.80;99.90
41630;DHT22;27322;49.488;8.480;2024-01-30T05:03:44;4.80;99.90
41630;DHT22;27322;49.488;8.480;2024-01-30T05:06:10;4.80;99.90
41630;DHT22;27322;49.488;8.480;2024-01-30T05:08:35;4.80;99.90
41630;DHT22;27322;49.488;8.480;2024-01-30T05:11:07;4.80;99.90
41630;DHT22;27322;49.488;8.480;2024-01-30T05:13:32;4.80;99.90
41630;DHT22;27322;49.488;8.480;2024-01-30T05:15:58;4.80;99.90
41630;DHT22;27322;49.488;8.480;2024-01-30T05:18:23;4.80;99.90
41630;DHT22;27322;49.488;8.480;2024-01-30T05:20:50;4.80;99.90
41630;DHT22;27322;49.488;8.480;2024-01-30T05:23:16;4.90;99.90
41630;DHT22;27322;49.488;8.480;2024-01-30T05:25:42;4.90;99.90
41630;DHT22;27322;49.488;8.480;2024-01-30T05:28:07;4.90;99.90
41630;DHT22;27322;49.488;8.480;2024-01-30T05:30:33;4.90;99.90
41630;DHT22;27322;49.488;8.480;2024-01-30T05:32:58;4.90;99.90
41630;DHT22;27322;49.488;8.480;2024-01-30T05:35:24;4.90;99.90
41630;DHT22;27322;49.488;8.480;2024-01-30T05:37:50;4.90;99.90
41630;DHT22;27322;49.488;8.480;2024-01-30T05:40:16;5.00;99.90
41630;DHT22;27322;49.488;8.480;2024-01-30T05:42:42;5.00;99.90
41630;DHT22;27322;49.488;8.480;2024-01-30T05:45:07;5.00;99.90
41630;DHT22;27322;49.488;8.480;2024-01-30T05:47:34;5.00;99.90
41630;DHT22;27322;49.488;8.480;2024-01-30T05:50:00;5.00;99.90
41630;DHT22;27322;49.488;8.480;2024-01-30T05:52:25;5.10;99.90
41630;DHT22;27322;49.488;8.480;2024-01-30T05:54:51;5.10;99.90
41630;DHT22;27322;49.488;8.480;2024-01-30T05:57:17;5.20;99.90
41630;DHT22;27322;49.488;8.480;2024-01-30T05:59:44;5.20;99.90
41630;DHT22;27322;49.488;8.480;2024-01-30T06:02:13;5.20;99.90
41630;DHT22;27322;49.488;8.480;2024-01-30T06:04:39;5.20;99.90
41630;DHT22;27322;49.488;8.480;2024-01-30T06:07:04;5.30;99.90
41630;DHT22;27322;49.488;8.480;2024-01-30T06:09:31;5.30;99.90
41630;DHT22;27322;49.488;8.480;2024-01-30T06:11:57;5.30;99.90
41630;DHT22;27322;49.488;8.480;2024-01-30T06:14:23;5.30;99.90
41630;DHT22;27322;49.488;8.480;2024-01-30T06:16:48;5.40;99.90
41630;DHT22;27322;49.488;8.480;2024-01-30T06:19:14;5.40;99.90
41630;DHT22;27322;49.488;8.480;2024-01-30T06:21:40;5.40;99.90
41630;DHT22;27322;49.488;8.480;2024-01-30T06:24:05;5.50;99.90
41630;DHT22;27322;49.488;8.480;2024-01-30T06:26:31;5.50;99.90
41630;DHT22;27322;49.488;8.480;2024-01-30T06:28:56;5.50;99.90
41630;DHT22;27322;49.488;8.480;2024-01-30T06:31:22;5.50;99.90
41630;DHT22;27322;49.488;8.480;2024-01-30T06:33:48;5.60;99.90
41630;DHT22;27322;49.488;8.480;2024-01-30T06:36:13;5.60;99.90
41630;DHT22;27322;49.488;8.480;2024-01-30T06:38:40;5.60;99.90
41630;DHT22;27322;49.488;8.480;2024-01-30T06:41:06;5.60;99.90
41630;DHT22;27322;49.488;8.480;2024-01-30T06:43:32;5.60;99.90
41630;DHT22;27322;49.488;8.480;2024-01-30T06:45:57;5.60;99.90
41630;DHT22;27322;49.488;8.480;2024-01-30T06:48:23;5.70;99.90
41630;DHT22;27322;49.488;8.480;2024-01-30T06:50:48;5.70;99.90
41630;DHT22;27322;49.488;8.480;2024-01-30T06:53:14;5.70;99.90
41630;DHT22;27322;49.488;8.480;2024-01-30T06:55:40;5.70;99.90
41630;DHT22;27322;49.488;8.480;2024-01-30T06:58:06;5.80;99.90
41630;DHT22;27322;49.488;8.480;2024-01-30T07:00:32;5.80;99.90
41630;DHT22;27322;49.488;8.480;2024-01-30T07:02:57;5.80;99.90
41630;DHT22;27322;49.488;8.480;2024-01-30T07:05:23;5.80;99.90
41630;DHT22;27322;49.488;8.480;2024-01-30T07:07:48;5.80;99.90
41630;DHT22;27322;49.488;8.480;2024-01-30T07:10:14;5.80;99.90
41630;DHT22;27322;49.488;8.480;2024-01-30T07:12:40;5.80;99.90
41630;DHT22;27322;49.488;8.480;2024-01-30T07:15:06;5.80;99.90
41630;DHT22;27322;49.488;8.480;2024-01-30T07:17:34;5.80;99.90
41630;DHT22;27322;49.488;8.480;2024-01-30T07:20:00;5.80;99.90
41630;DHT22;27322;49.488;8.480;2024-01-30T07:22:26;5.70;99.90
41630;DHT22;27322;49.488;8.480;2024-01-30T07:24:52;5.70;99.90
41630;DHT22;27322;49.488;8.480;2024-01-30T07:27:17;5.70;99.90
41630;DHT22;27322;49.488;8.480;2024-01-30T07:29:43;5.70;99.90
41630;DHT22;27322;49.488;8.480;2024-01-30T07:32:09;5.70;99.90
41630;DHT22;27322;49.488;8.480;2024-01-30T07:34:35;5.80;99.90
41630;DHT22;27322;49.488;8.480;2024-01-30T07:37:01;5.80;99.90
41630;DHT22;27322;49.488;8.480;2024-01-30T07:39:27;5.80;99.90
41630;DHT22;27322;49.488;8.480;2024-01-30T07:41:53;5.80;99.90
41630;DHT22;27322;49.488;8.480;2024-01-30T07:44:19;5.80;99.90
41630;DHT22;27322;49.488;8.480;2024-01-30T07:46:44;5.90;99.90
41630;DHT22;27322;49.488;8.480;2024-01-30T07:49:10;5.90;99.90
41630;DHT22;27322;49.488;8.480;2024-01-30T07:51:35;5.90;99.90
41630;DHT22;27322;49.488;8.480;2024-01-30T07:54:01;6.00;99.90
41630;DHT22;27322;49.488;8.480;2024-01-30T07:56:26;6.00;99.90
41630;DHT22;27322;49.488;8.480;2024-01-30T07:58:52;6.00;99.90
41630;DHT22;27322;49.488;8.480;2024-01-30T08:01:18;6.00;99.90
41630;DHT22;27322;49.488;8.480;2024-01-30T08:03:44;6.00;99.90
41630;DHT22;27322;49.488;8.480;2024-01-30T08:06:10;6.00;99.90
41630;DHT22;27322;49.488;8.480;2024-01-30T08:08:35;6.10;99.90
41630;DHT22;27322;49.488;8.480;2024-01-30T08:11:03;6.10;99.90
41630;DHT22;27322;49.488;8.480;2024-01-30T08:13:29;6.10;99.90
41630;DHT22;27322;49.488;8.480;2024-01-30T08:15:54;6.10;99.90
41630;DHT22;27322;49.488;8.480;2024-01-30T08:18:20;6.20;99.90
41630;DHT22;27322;49.488;8.480;2024-01-30T08:20:45;6.20;99.90
41630;DHT22;27322;49.488;8.480;2024-01-30T08:23:11;6.20;99.90
41630;DHT22;27322;49.488;8.480;2024-01-30T08:25:36;6.20;99.90
41630;DHT22;27322;49.488;8.480;2024-01-30T08:28:03;6.30;99.90
41630;DHT22;27322;49.488;8.480;2024-01-30T08:30:29;6.30;99.90
41630;DHT22;27322;49.488;8.480;2024-01-30T08:32:55;6.30;99.90
41630;DHT22;27322;49.488;8.480;2024-01-30T08:35:20;6.30;99.90
41630;DHT22;27322;49.488;8.480;2024-01-30T08:37:46;6.40;99.90
41630;DHT22;27322;49.488;8.480;2024-01-30T08:40:11;6.40;99.90
41630;DHT22;27322;49.488;8.480;2024-01-30T08:42:37;6.40;99.90
41630;DHT22;27322;49.488;8.480;2024-01-30T08:45:03;6.50;99.90
41630;DHT22;27322;49.488;8.480;2024-01-30T08:47:30;6.50;99.90
41630;DHT22;27322;49.488;8.480;2024-01-30T08:49:55;6.50;99.90
41630;DHT22;27322;49.488;8.480;2024-01-30T08:52:21;6.60;99.90
41630;DHT22;27322;49.488;8.480;2024-01-30T08:54:46;6.60;99.90
41630;DHT22;27322;49.488;8.480;2024-01-30T08:57:12;6.60;99.90
41630;DHT22;27322;49.488;8.480;2024-01-30T08:59:38;6.60;99.90
41630;DHT22;27322;49.488;8.480;2024-01-30T09:02:03;6.60;99.90
41630;DHT22;27322;49.488;8.480;2024-01-30T09:04:30;6.60;99.90
41630;DHT22;27322;49.488;8.480;2024-01-30T09:06:56;6.70;99.90
41630;DHT22;27322;49.488;8.480;2024-01-30T09:09:22;6.60;99.90
41630;DHT22;27322;49.488;8.480;2024-01-30T09:11:47;6.70;99.90
41630;DHT22;27322;49.488;8.480;2024-01-30T09:14:13;6.70;99.90
41630;DHT22;27322;49.488;8.480;2024-01-30T09:16:39;6.70;99.90
41630;DHT22;27322;49.488;8.480;2024-01-30T09:19:05;6.70;99.90
41630;DHT22;27322;49.488;8.480;2024-01-30T09:21:30;6.70;99.90
41630;DHT22;27322;49.488;8.480;2024-01-30T09:24:02;6.70;99.90
41630;DHT22;27322;49.488;8.480;2024-01-30T09:26:29;6.70;99.90
41630;DHT22;27322;49.488;8.480;2024-01-30T09:28:54;6.80;99.90
41630;DHT22;27322;49.488;8.480;2024-01-30T09:31:20;6.80;99.90
41630;DHT22;27322;49.488;8.480;2024-01-30T09:33:46;6.80;99.90
41630;DHT22;27322;49.488;8.480;2024-01-30T09:36:13;6.80;99.90
41630;DHT22;27322;49.488;8.480;2024-01-30T09:38:40;6.90;99.90
41630;DHT22;27322;49.488;8.480;2024-01-30T09:41:09;6.90;99.90
41630;DHT22;27322;49.488;8.480;2024-01-30T09:43:38;6.90;99.90
41630;DHT22;27322;49.488;8.480;2024-01-30T09:46:05;6.90;99.90
41630;DHT22;27322;49.488;8.480;2024-01-30T09:48:33;7.00;99.90
41630;DHT22;27322;49.488;8.480;2024-01-30T09:51:00;7.00;99.90
41630;DHT22;27322;49.488;8.480;2024-01-30T09:53:25;7.00;99.90
41630;DHT22;27322;49.488;8.480;2024-01-30T09:55:51;7.10;99.90
41630;DHT22;27322;49.488;8.480;2024-01-30T09:58:17;7.10;99.90
41630;DHT22;27322;49.488;8.480;2024-01-30T10:00:43;7.10;99.90
41630;DHT22;27322;49.488;8.480;2024-01-30T10:03:09;7.10;99.90
41630;DHT22;27322;49.488;8.480;2024-01-30T10:05:36;7.10;99.90
41630;DHT22;27322;49.488;8.480;2024-01-30T10:08:08;7.20;99.90
41630;DHT22;27322;49.488;8.480;2024-01-30T10:10:34;7.20;99.90
41630;DHT22;27322;49.488;8.480;2024-01-30T10:13:00;7.20;99.90
41630;DHT22;27322;49.488;8.480;2024-01-30T10:15:28;7.20;99.90
41630;DHT22;27322;49.488;8.480;2024-01-30T10:17:53;7.30;99.90
41630;DHT22;27322;49.488;8.480;2024-01-30T10:20:19;7.30;99.90
41630;DHT22;27322;49.488;8.480;2024-01-30T10:22:45;7.30;99.90
41630;DHT22;27322;49.488;8.480;2024-01-30T10:25:11;7.30;99.90
41630;DHT22;27322;49.488;8.480;2024-01-30T10:27:39;7.40;99.90
41630;DHT22;27322;49.488;8.480;2024-01-30T10:30:05;7.40;99.90
41630;DHT22;27322;49.488;8.480;2024-01-30T10:32:31;7.50;99.90
41630;DHT22;27322;49.488;8.480;2024-01-30T10:35:07;7.50;99.90
41630;DHT22;27322;49.488;8.480;2024-01-30T10:37:34;7.50;99.90
41630;DHT22;27322;49.488;8.480;2024-01-30T10:40:03;7.50;99.90
41630;DHT22;27322;49.488;8.480;2024-01-30T10:42:32;7.50;99.90
41630;DHT22;27322;49.488;8.480;2024-01-30T10:45:14;7.50;99.90
41630;DHT22;27322;49.488;8.480;2024-01-30T10:47:50;7.60;99.90
41630;DHT22;27322;49.488;8.480;2024-01-30T10:50:18;7.60;99.90
41630;DHT22;27322;49.488;8.480;2024-01-30T10:52:45;7.60;99.90
41630;DHT22;27322;49.488;8.480;2024-01-30T10:55:10;7.60;99.90
41630;DHT22;27322;49.488;8.480;2024-01-30T10:57:37;7.70;99.90
41630;DHT22;27322;49.488;8.480;2024-01-30T11:00:06;7.70;99.90
41630;DHT22;27322;49.488;8.480;2024-01-30T11:02:40;7.70;99.90
41630;DHT22;27322;49.488;8.480;2024-01-30T11:05:05;7.80;99.90
41630;DHT22;27322;49.488;8.480;2024-01-30T11:07:31;7.80;99.90
41630;DHT22;27322;49.488;8.480;2024-01-30T11:12:24;7.90;99.90
41630;DHT22;27322;49.488;8.480;2024-01-30T11:15:01;8.00;99.90
41630;DHT22;27322;49.488;8.480;2024-01-30T11:17:28;8.00;99.90
41630;DHT22;27322;49.488;8.480;2024-01-30T11:19:54;8.10;99.90
41630;DHT22;27322;49.488;8.480;2024-01-30T11:22:20;8.10;99.90
41630;DHT22;27322;49.488;8.480;2024-01-30T11:24:47;8.10;99.90
41630;DHT22;27322;49.488;8.480;2024-01-30T11:27:13;8.10;99.90
41630;DHT22;27322;49.488;8.480;2024-01-30T11:29:40;8.10;99.90
41630;DHT22;27322;49.488;8.480;2024-01-30T11:32:06;8.20;99.90
41630;DHT22;27322;49.488;8.480;2024-01-30T11:34:33;8.20;99.90
41630;DHT22;27322;49.488;8.480;2024-01-30T11:37:04;8.20;99.90
41630;DHT22;27322;49.488;8.480;2024-01-30T11:39:32;8.30;99.90
41630;DHT22;27322;49.488;8.480;2024-01-30T11:41:59;8.30;99.90
41630;DHT22;27322;49.488;8.480;2024-01-30T11:44:25;8.30;99.90
41630;DHT22;27322;49.488;8.480;2024-01-30T11:46:51;8.30;99.90
41630;DHT22;27322;49.488;8.480;2024-01-30T11:49:18;8.30;99.90
41630;DHT22;27322;49.488;8.480;2024-01-30T11:51:47;8.30;99.90
41630;DHT22;27322;49.488;8.480;2024-01-30T11:54:16;8.30;99.90
41630;DHT22;27322;49.488;8.480;2024-01-30T11:56:42;8.30;99.90
41630;DHT22;27322;49.488;8.480;2024-01-30T11:59:08;8.40;99.90
41630;DHT22;27322;49.488;8.480;2024-01-30T12:01:34;8.40;99.90
41630;DHT22;27322;49.488;8.480;2024-01-30T12:04:00;8.40;99.90
41630;DHT22;27322;49.488;8.480;2024-01-30T12:06:26;8.40;99.90
41630;DHT22;27322;49.488;8.480;2024-01-30T12:09:02;8.50;99.90
41630;DHT22;27322;49.488;8.480;2024-01-30T12:11:45;8.50;99.90
41630;DHT22;27322;49.488;8.480;2024-01-30T12:14:12;8.50;99.90
41630;DHT22;27322;49.488;8.480;2024-01-30T12:16:37;8.60;99.90
41630;DHT22;27322;49.488;8.480;2024-01-30T12:19:03;8.60;99.90
41630;DHT22;27322;49.488;8.480;2024-01-30T12:21:29;8.60;99.90
41630;DHT22;27322;49.488;8.480;2024-01-30T12:23:56;8.70;99.90
41630;DHT22;27322;49.488;8.480;2024-01-30T12:26:22;8.70;99.90
41630;DHT22;27322;49.488;8.480;2024-01-30T12:28:49;8.70;99.90
41630;DHT22;27322;49.488;8.480;2024-01-30T12:31:15;8.70;99.90
41630;DHT22;27322;49.488;8.480;2024-01-30T12:33:41;8.70;99.90
41630;DHT22;27322;49.488;8.480;2024-01-30T12:36:07;8.80;99.90
41630;DHT22;27322;49.488;8.480;2024-01-30T12:38:33;8.80;99.90
41630;DHT22;27322;49.488;8.480;2024-01-30T12:40:58;8.80;99.90
41630;DHT22;27322;49.488;8.480;2024-01-30T12:43:25;8.80;99.90
41630;DHT22;27322;49.488;8.480;2024-01-30T12:45:52;8.90;99.90
41630;DHT22;27322;49.488;8.480;2024-01-30T12:48:18;8.90;99.90
41630;DHT22;27322;49.488;8.480;2024-01-30T12:50:44;9.00;99.90
41630;DHT22;27322;49.488;8.480;2024-01-30T12:53:09;9.00;99.90
41630;DHT22;27322;49.488;8.480;2024-01-30T12:55:35;9.00;99.90
41630;DHT22;27322;49.488;8.480;2024-01-30T12:58:01;9.00;99.90
41630;DHT22;27322;49.488;8.480;2024-01-30T13:00:27;9.10;99.90
41630;DHT22;27322;49.488;8.480;2024-01-30T13:02:52;9.10;99.90
41630;DHT22;27322;49.488;8.480;2024-01-30T13:05:18;9.20;99.90
41630;DHT22;27322;49.488;8.480;2024-01-30T13:07:44;9.20;99.90
41630;DHT22;27322;49.488;8.480;2024-01-30T13:10:09;9.20;99.90
41630;DHT22;27322;49.488;8.480;2024-01-30T13:12:35;9.20;99.90
41630;DHT22;27322;49.488;8.480;2024-01-30T13:15:02;9.30;99.90
41630;DHT22;27322;49.488;8.480;2024-01-30T13:17:30;9.30;99.90
41630;DHT22;27322;49.488;8.480;2024-01-30T13:19:55;9.30;99.90
41630;DHT22;27322;49.488;8.480;2024-01-30T13:22:21;9.40;99.90
41630;DHT22;27322;49.488;8.480;2024-01-30T13:24:49;9.40;99.90
41630;DHT22;27322;49.488;8.480;2024-01-30T13:27:15;9.40;99.90
41630;DHT22;27322;49.488;8.480;2024-01-30T13:29:41;9.40;99.90
41630;DHT22;27322;49.488;8.480;2024-01-30T13:32:06;9.50;99.90
41630;DHT22;27322;49.488;8.480;2024-01-30T13:34:32;9.50;99.90
41630;DHT22;27322;49.488;8.480;2024-01-30T13:36:58;9.50;99.90
41630;DHT22;27322;49.488;8.480;2024-01-30T13:39:23;9.50;99.90
41630;DHT22;27322;49.488;8.480;2024-01-30T13:41:49;9.50;99.90
41630;DHT22;27322;49.488;8.480;2024-01-30T13:44:15;9.60;99.90
41630;DHT22;27322;49.488;8.480;2024-01-30T13:46:42;9.60;99.90
41630;DHT22;27322;49.488;8.480;2024-01-30T13:49:08;9.60;99.90
41630;DHT22;27322;49.488;8.480;2024-01-30T13:51:33;9.60;99.90
41630;DHT22;27322;49.488;8.480;2024-01-30T13:53:59;9.60;99.90
41630;DHT22;27322;49.488;8.480;2024-01-30T13:56:25;9.60;99.90
41630;DHT22;27322;49.488;8.480;2024-01-30T13:58:52;9.60;99.90
41630;DHT22;27322;49.488;8.480;2024-01-30T14:01:18;9.60;99.90
41630;DHT22;27322;49.488;8.480;2024-01-30T14:03:43;9.70;99.90
41630;DHT22;27322;49.488;8.480;2024-01-30T14:06:09;9.70;99.90
41630;DHT22;27322;49.488;8.480;2024-01-30T14:08:34;9.70;99.90
41630;DHT22;27322;49.488;8.480;2024-01-30T14:11:00;9.70;99.90
41630;DHT22;27322;49.488;8.480;2024-01-30T14:13:26;9.70;99.90
41630;DHT22;27322;49.488;8.480;2024-01-30T14:15:52;9.70;99.90
41630;DHT22;27322;49.488;8.480;2024-01-30T14:18:18;9.70;99.90
41630;DHT22;27322;49.488;8.480;2024-01-30T14:20:43;9.80;99.90
41630;DHT22;27322;49.488;8.480;2024-01-30T14:23:09;9.80;99.90
41630;DHT22;27322;49.488;8.480;2024-01-30T14:25:35;9.80;99.90
41630;DHT22;27322;49.488;8.480;2024-01-30T14:28:00;9.80;99.90
41630;DHT22;27322;49.488;8.480;2024-01-30T14:30:26;9.90;99.90
41630;DHT22;27322;49.488;8.480;2024-01-30T14:32:51;9.90;99.90
41630;DHT22;27322;49.488;8.480;2024-01-30T14:35:17;9.90;99.90
41630;DHT22;27322;49.488;8.480;2024-01-30T14:37:44;9.90;99.90
41630;DHT22;27322;49.488;8.480;2024-01-30T14:40:10;9.90;99.90
41630;DHT22;27322;49.488;8.480;2024-01-30T14:42:36;9.90;99.90
41630;DHT22;27322;49.488;8.480;2024-01-30T14:45:03;9.90;99.90
41630;DHT22;27322;49.488;8.480;2024-01-30T14:47:28;10.00;99.90
41630;DHT22;27322;49.488;8.480;2024-01-30T14:49:54;10.00;99.90
41630;DHT22;27322;49.488;8.480;2024-01-30T14:52:20;9.90;99.90
41630;DHT22;27322;49.488;8.480;2024-01-30T14:54:45;10.00;99.90
41630;DHT22;27322;49.488;8.480;2024-01-30T14:57:11;10.00;99.90
41630;DHT22;27322;49.488;8.480;2024-01-30T14:59:37;10.00;99.90
41630;DHT22;27322;49.488;8.480;2024-01-30T15:02:02;10.00;99.90
41630;DHT22;27322;49.488;8.480;2024-01-30T15:04:28;10.00;99.90
41630;DHT22;27322;49.488;8.480;2024-01-30T15:06:54;10.00;99.90
41630;DHT22;27322;49.488;8.480;2024-01-30T15:09:19;10.00;99.90
41630;DHT22;27322;49.488;8.480;2024-01-30T15:11:47;10.00;99.90
41630;DHT22;27322;49.488;8.480;2024-01-30T15:14:14;10.00;99.90
41630;DHT22;27322;49.488;8.480;2024-01-30T15:16:40;10.00;99.90
41630;DHT22;27322;49.488;8.480;2024-01-30T15:19:05;10.00;99.90
41630;DHT22;27322;49.488;8.480;2024-01-30T15:21:32;10.00;99.90
41630;DHT22;27322;49.488;8.480;2024-01-30T15:23:57;10.00;99.90
41630;DHT22;27322;49.488;8.480;2024-01-30T15:26:23;9.90;99.90
41630;DHT22;27322;49.488;8.480;2024-01-30T15:28:49;9.90;99.90
41630;DHT22;27322;49.488;8.480;2024-01-30T15:31:14;9.90;99.90
41630;DHT22;27322;49.488;8.480;2024-01-30T15:33:40;9.90;99.90
41630;DHT22;27322;49.488;8.480;2024-01-30T15:36:07;9.90;99.90
41630;DHT22;27322;49.488;8.480;2024-01-30T15:38:34;9.90;99.90
41630;DHT22;27322;49.488;8.480;2024-01-30T15:41:00;9.90;99.90